createdAt,value
2023-05-02T00:00:37.689Z,8.97
2023-05-02T00:03:41.966Z,9.73
2023-05-02T00:06:47.061Z,10.60
2023-05-02T00:09:49.746Z,10.70
2023-05-02T00:12:52.323Z,10.87
2023-05-02T00:15:54.913Z,12.63
2023-05-02T00:18:57.553Z,12.50
2023-05-02T00:22:01.530Z,11.97
2023-05-02T00:25:04.573Z,14.33
2023-05-02T00:28:07.181Z,14.27
2023-05-02T00:31:10.384Z,15.13
2023-05-02T00:34:13.124Z,15.83
2023-05-02T00:37:17.051Z,15.67
2023-05-02T00:40:19.869Z,15.77
2023-05-02T00:43:22.449Z,15.83
2023-05-02T00:46:25.354Z,17.00
2023-05-02T00:49:28.417Z,17.00
2023-05-02T00:52:32.470Z,16.70
2023-05-02T00:55:35.662Z,17.27
2023-05-02T00:58:39.495Z,17.13
2023-05-02T01:01:53.554Z,17.67
2023-05-02T01:05:03.655Z,17.00
2023-05-02T01:08:15.108Z,16.40
2023-05-02T01:11:29.204Z,16.50
2023-05-02T01:14:36.027Z,15.87
2023-05-02T01:17:39.992Z,16.47
2023-05-02T01:20:47.496Z,14.77
2023-05-02T01:24:01.718Z,15.13
2023-05-02T01:27:19.599Z,15.77
2023-05-02T01:30:25.500Z,14.73
2023-05-02T01:33:29.520Z,15.43
2023-05-02T01:36:34.565Z,15.37
2023-05-02T01:39:39.261Z,16.50
2023-05-02T01:42:43.609Z,15.83
2023-05-02T01:45:50.971Z,15.73
2023-05-02T01:48:54.587Z,15.20
2023-05-02T01:51:58.160Z,15.67
2023-05-02T01:55:02.351Z,15.30
2023-05-02T01:58:07.429Z,14.67
2023-05-02T02:01:12.677Z,13.00
2023-05-02T02:04:17.344Z,13.53
2023-05-02T02:07:20.661Z,12.97
2023-05-02T02:10:25.891Z,12.73
2023-05-02T02:13:32.339Z,10.90
2023-05-02T02:16:39.910Z,11.33
2023-05-02T02:19:43.771Z,11.27
2023-05-02T02:22:47.928Z,11.17
2023-05-02T02:25:53.341Z,9.70
2023-05-02T02:28:56.544Z,9.63
2023-05-02T02:32:00.559Z,9.60
2023-05-02T02:35:03.979Z,9.37
2023-05-02T02:38:12.523Z,9.60
2023-05-02T02:41:28.416Z,8.30
2023-05-02T02:44:43.753Z,8.47
2023-05-02T02:47:56.208Z,8.00
2023-05-02T02:51:09.101Z,8.90
2023-05-02T02:54:26.977Z,9.23
2023-05-02T02:57:37.309Z,9.37
2023-05-02T03:00:40.708Z,7.63
2023-05-02T03:03:47.260Z,7.27
2023-05-02T03:06:50.207Z,7.60
2023-05-02T03:09:52.844Z,7.00
2023-05-02T03:12:56.150Z,6.07
2023-05-02T03:16:30.472Z,5.10
2023-05-02T03:19:34.451Z,3.57
2023-05-02T03:22:37.022Z,3.40
2023-05-02T03:25:39.725Z,3.60
2023-05-02T03:28:42.343Z,3.20
2023-05-02T03:31:45.001Z,3.30
2023-05-02T03:34:49.465Z,4.13
2023-05-02T03:37:52.069Z,4.20
2023-05-02T03:40:58.034Z,3.97
2023-05-02T03:44:00.637Z,3.80
2023-05-02T03:47:03.516Z,4.20
2023-05-02T03:50:09.224Z,4.40
2023-05-02T03:53:11.840Z,4.23
2023-05-02T03:56:20.032Z,4.13
2023-05-02T03:59:22.731Z,4.50
2023-05-02T04:02:26.235Z,4.53
2023-05-02T04:05:30.232Z,4.33
2023-05-02T04:08:33.064Z,4.70
2023-05-02T04:11:35.723Z,4.43
2023-05-02T04:14:38.311Z,4.30
2023-05-02T04:17:40.964Z,3.80
2023-05-02T04:20:45.670Z,3.83
2023-05-02T04:23:48.266Z,4.10
2023-05-02T04:26:50.866Z,4.30
2023-05-02T04:29:54.325Z,4.03
2023-05-02T04:32:57.669Z,4.70
2023-05-02T04:36:01.635Z,4.00
2023-05-02T04:39:07.478Z,4.70
2023-05-02T04:42:10.086Z,4.10
2023-05-02T04:45:12.701Z,4.30
2023-05-02T04:48:15.418Z,3.83
2023-05-02T04:51:19.412Z,3.80
2023-05-02T04:54:21.988Z,4.33
2023-05-02T04:57:24.575Z,3.83
2023-05-02T05:00:27.257Z,4.23
2023-05-02T05:03:30.843Z,4.20
2023-05-02T05:06:35.056Z,5.17
2023-05-02T05:09:37.681Z,4.00
2023-05-02T05:12:41.024Z,3.30
2023-05-02T05:15:44.421Z,3.97
2023-05-02T05:18:49.172Z,4.10
2023-05-02T05:21:53.144Z,4.07
2023-05-02T05:24:56.178Z,4.23
2023-05-02T05:28:00.339Z,4.50
2023-05-02T05:31:06.731Z,3.63
2023-05-02T05:34:09.359Z,4.13
2023-05-02T05:37:13.469Z,4.57
2023-05-02T05:40:16.838Z,3.63
2023-05-02T05:43:19.423Z,3.80
2023-05-02T05:46:22.009Z,6.77
2023-05-02T05:49:24.908Z,3.70
2023-05-02T05:52:28.937Z,3.83
2023-05-02T05:55:31.550Z,3.73
2023-05-02T05:58:34.271Z,3.77
2023-05-02T06:01:38.085Z,4.07
2023-05-02T06:04:40.835Z,2.97
2023-05-02T06:07:44.818Z,2.87
2023-05-02T06:10:47.391Z,3.13
2023-05-02T06:13:50.002Z,2.83
2023-05-02T06:16:52.583Z,3.37
2023-05-02T06:19:55.195Z,3.20
2023-05-02T06:22:59.163Z,2.60
2023-05-02T06:26:02.140Z,3.10
2023-05-02T06:29:04.753Z,3.13
2023-05-02T06:32:07.425Z,3.67
2023-05-02T06:35:10.972Z,3.37
2023-05-02T06:38:18.061Z,3.33
2023-05-02T06:41:20.721Z,3.13
2023-05-02T06:44:23.322Z,3.50
2023-05-02T06:47:26.294Z,3.30
2023-05-02T06:50:30.059Z,3.03
2023-05-02T06:53:34.181Z,3.10
2023-05-02T06:56:36.899Z,3.10
2023-05-02T06:59:39.571Z,3.43
2023-05-02T07:02:42.307Z,3.07
2023-05-02T07:05:44.985Z,3.17
2023-05-02T07:08:48.979Z,3.33
2023-05-02T07:11:51.552Z,3.17
2023-05-02T07:14:54.249Z,3.00
2023-05-02T07:17:56.884Z,3.17
2023-05-02T07:21:01.293Z,3.00
2023-05-02T07:24:05.934Z,3.20
2023-05-02T07:27:10.190Z,2.77
2023-05-02T07:30:14.048Z,3.03
2023-05-02T07:33:16.737Z,2.83
2023-05-02T07:36:19.360Z,2.90
2023-05-02T07:39:23.827Z,2.30
2023-05-02T07:42:30.234Z,2.60
2023-05-02T07:45:32.896Z,3.67
2023-05-02T07:48:35.940Z,2.93
2023-05-02T07:51:39.792Z,2.57
2023-05-02T07:54:43.754Z,2.50
2023-05-02T07:57:46.323Z,2.80
2023-05-02T08:00:48.915Z,2.17
2023-05-02T08:03:51.729Z,2.13
2023-05-02T08:06:55.796Z,2.70
2023-05-02T08:09:59.986Z,3.90
2023-05-02T08:13:02.815Z,4.30
2023-05-02T08:16:06.529Z,3.60
2023-05-02T08:19:09.456Z,3.07
2023-05-02T08:22:12.120Z,2.53
2023-05-02T08:25:16.544Z,2.30
2023-05-02T08:28:19.743Z,2.03
2023-05-02T08:31:22.553Z,1.93
2023-05-02T08:34:25.228Z,1.80
2023-05-02T08:37:27.813Z,1.80
2023-05-02T08:40:42.124Z,1.90
2023-05-02T08:43:45.510Z,2.40
2023-05-02T08:46:51.634Z,2.27
2023-05-02T08:49:56.347Z,2.27
2023-05-02T08:53:00.398Z,2.30
2023-05-02T08:56:04.779Z,1.97
2023-05-02T08:59:08.278Z,2.03
2023-05-02T09:02:23.806Z,1.77
2023-05-02T09:05:26.616Z,1.70
2023-05-02T09:08:29.229Z,2.53
2023-05-02T09:11:33.243Z,2.53
2023-05-02T09:14:36.063Z,2.17
2023-05-02T09:17:42.876Z,2.17
2023-05-02T09:20:45.662Z,2.40
2023-05-02T09:23:49.686Z,2.30
2023-05-02T09:27:01.035Z,2.30
2023-05-02T09:30:20.806Z,2.10
2023-05-02T09:33:28.305Z,1.90
2023-05-02T09:36:40.820Z,2.37
2023-05-02T09:40:07.045Z,2.10
2023-05-02T09:43:17.157Z,2.57
2023-05-02T09:46:19.964Z,2.40
2023-05-02T09:49:41.052Z,2.60
2023-05-02T09:53:02.416Z,2.20
2023-05-02T09:56:05.810Z,2.37
2023-05-02T09:59:15.707Z,2.07
2023-05-02T10:02:19.140Z,2.13
2023-05-02T10:05:22.657Z,2.20
2023-05-02T10:08:28.496Z,1.93
2023-05-02T10:11:33.562Z,1.90
2023-05-02T10:14:42.227Z,2.00
2023-05-02T10:17:50.601Z,1.70
2023-05-02T10:20:58.081Z,1.90
2023-05-02T10:24:03.349Z,1.60
2023-05-02T10:27:06.748Z,1.63
2023-05-02T10:30:13.962Z,1.63
2023-05-02T10:33:18.921Z,1.90
2023-05-02T10:36:23.658Z,1.60
2023-05-02T10:39:26.733Z,1.70
2023-05-02T10:42:31.240Z,1.47
2023-05-02T10:45:37.256Z,1.57
2023-05-02T10:48:40.046Z,1.63
2023-05-02T10:51:44.232Z,1.80
2023-05-02T10:54:47.033Z,1.73
2023-05-02T10:58:22.183Z,1.70
2023-05-02T11:01:39.802Z,2.00
2023-05-02T11:05:04.416Z,1.97
2023-05-02T11:08:32.477Z,2.03
2023-05-02T11:11:42.487Z,2.20
2023-05-02T11:14:49.870Z,2.07
2023-05-02T11:18:06.543Z,1.80
2023-05-02T11:21:28.780Z,2.10
2023-05-02T11:24:42.129Z,1.90
2023-05-02T11:27:46.247Z,5.30
2023-05-02T11:30:50.866Z,2.27
2023-05-02T11:33:58.511Z,1.87
2023-05-02T11:37:01.145Z,1.63
2023-05-02T11:40:13.862Z,1.70
2023-05-02T11:43:17.841Z,1.80
2023-05-02T11:46:21.101Z,1.60
2023-05-02T11:49:25.392Z,1.40
2023-05-02T11:52:28.029Z,1.50
2023-05-02T11:55:30.817Z,1.67
2023-05-02T11:58:34.376Z,1.43
2023-05-02T12:01:37.343Z,1.90
2023-05-02T12:04:45.404Z,1.50
2023-05-02T12:07:49.271Z,1.50
2023-05-02T12:10:53.615Z,1.27
2023-05-02T12:13:56.331Z,1.40
2023-05-02T12:17:00.118Z,1.43
2023-05-02T12:20:08.894Z,1.20
2023-05-02T12:23:12.802Z,2.27
2023-05-02T12:26:19.576Z,9.20
2023-05-02T12:29:22.272Z,3.27
2023-05-02T12:32:29.703Z,2.87
2023-05-02T12:35:34.655Z,2.10
2023-05-02T12:38:37.285Z,2.50
2023-05-02T12:41:43.587Z,3.77
2023-05-02T12:44:48.295Z,1.63
2023-05-02T12:47:51.136Z,1.20
2023-05-02T12:50:56.081Z,1.40
2023-05-02T12:53:58.727Z,1.53
2023-05-02T12:57:02.950Z,1.60
2023-05-02T13:00:06.944Z,1.77
2023-05-02T13:03:10.433Z,1.73
2023-05-02T13:06:14.440Z,2.23
2023-05-02T13:09:18.631Z,1.90
2023-05-02T13:12:21.365Z,1.70
2023-05-02T13:15:24.034Z,1.60
2023-05-02T13:18:28.000Z,2.20
2023-05-02T13:21:32.423Z,1.70
2023-05-02T13:24:35.004Z,3.10
2023-05-02T13:27:37.581Z,4.83
2023-05-02T13:30:40.355Z,1.70
2023-05-02T13:33:42.993Z,1.70
2023-05-02T13:36:47.028Z,1.47
2023-05-02T13:39:49.631Z,1.60
2023-05-02T13:42:52.272Z,1.63
2023-05-02T13:45:54.907Z,1.80
2023-05-02T13:48:57.656Z,1.53
2023-05-02T13:52:01.600Z,1.40
2023-05-02T13:55:04.807Z,1.77
2023-05-02T13:58:07.444Z,1.43
2023-05-02T14:01:10.107Z,1.97
2023-05-02T14:04:12.894Z,1.93
2023-05-02T14:07:16.910Z,2.30
2023-05-02T14:10:19.552Z,2.07
2023-05-02T14:13:22.196Z,2.03
2023-05-02T14:16:24.990Z,1.67
2023-05-02T14:19:27.689Z,1.60
2023-05-02T14:22:31.648Z,1.80
2023-05-02T14:25:34.329Z,1.87
2023-05-02T14:28:38.293Z,1.50
2023-05-02T14:31:41.755Z,1.70
2023-05-02T14:34:44.425Z,1.90
2023-05-02T14:37:48.359Z,2.13
2023-05-02T14:40:51.037Z,1.70
2023-05-02T14:43:53.767Z,1.47
2023-05-02T14:46:56.726Z,1.80
2023-05-02T14:49:59.741Z,2.30
2023-05-02T14:53:04.994Z,1.90
2023-05-02T14:56:13.273Z,1.70
2023-05-02T14:59:15.888Z,1.80
2023-05-02T15:02:18.832Z,1.70
2023-05-02T15:05:21.426Z,1.63
2023-05-02T15:08:25.377Z,1.73
2023-05-02T15:11:27.944Z,1.93
2023-05-02T15:14:30.577Z,1.70
2023-05-02T15:17:33.232Z,1.70
2023-05-02T15:20:36.488Z,1.60
2023-05-02T15:23:40.464Z,1.60
2023-05-02T15:26:43.030Z,1.90
2023-05-02T15:29:45.748Z,1.50
2023-05-02T15:32:48.373Z,1.50
2023-05-02T15:35:55.511Z,1.40
2023-05-02T15:38:59.799Z,1.30
2023-05-02T15:42:04.745Z,1.70
2023-05-02T15:45:08.533Z,1.77
2023-05-02T15:48:11.130Z,1.47
2023-05-02T15:51:13.725Z,1.67
2023-05-02T15:54:18.118Z,7.07
2023-05-02T15:57:21.202Z,3.40
2023-05-02T16:00:24.116Z,3.23
2023-05-02T16:03:26.922Z,3.47
2023-05-02T16:06:30.928Z,1.90
2023-05-02T16:09:34.979Z,1.97
2023-05-02T16:12:37.577Z,1.43
2023-05-02T16:15:40.381Z,1.70
2023-05-02T16:18:43.016Z,1.50
2023-05-02T16:21:45.886Z,1.57
2023-05-02T16:24:49.888Z,1.67
2023-05-02T16:27:52.567Z,1.70
2023-05-02T16:30:55.475Z,1.97
2023-05-02T16:33:59.032Z,1.67
2023-05-02T16:37:03.240Z,1.30
2023-05-02T16:40:09.092Z,1.70
2023-05-02T16:43:11.827Z,1.77
2023-05-02T16:46:14.469Z,2.20
2023-05-02T16:49:17.100Z,1.50
2023-05-02T16:52:19.691Z,1.53
2023-05-02T16:55:23.909Z,1.57
2023-05-02T16:58:28.734Z,1.50
2023-05-02T17:01:31.515Z,1.80
2023-05-02T17:04:34.247Z,1.53
2023-05-02T17:07:37.045Z,1.80
2023-05-02T17:10:40.997Z,1.73
2023-05-02T17:13:43.816Z,1.50
2023-05-02T17:16:46.451Z,1.70
2023-05-02T17:19:49.175Z,1.70
2023-05-02T17:22:52.557Z,1.30
2023-05-02T17:25:56.856Z,1.50
2023-05-02T17:28:59.554Z,1.40
2023-05-02T17:32:02.236Z,1.53
2023-05-02T17:35:05.372Z,1.67
2023-05-02T17:38:08.035Z,1.77
2023-05-02T17:41:12.294Z,1.60
2023-05-02T17:44:15.811Z,1.50
2023-05-02T17:47:19.763Z,1.70
2023-05-02T17:50:22.633Z,1.80
2023-05-02T17:53:26.402Z,1.50
2023-05-02T17:56:30.424Z,2.00
2023-05-02T17:59:33.052Z,1.70
2023-05-02T18:02:37.900Z,1.50
2023-05-02T18:05:43.965Z,1.90
2023-05-02T18:08:47.112Z,1.90
2023-05-02T18:11:52.076Z,1.70
2023-05-02T18:14:54.856Z,1.37
2023-05-02T18:17:57.660Z,1.67
2023-05-02T18:21:00.667Z,1.40
2023-05-02T18:24:03.478Z,1.47
2023-05-02T18:27:07.980Z,1.30
2023-05-02T18:30:11.376Z,1.67
2023-05-02T18:33:14.069Z,1.20
2023-05-02T18:36:19.389Z,1.80
2023-05-02T18:39:22.091Z,1.63
2023-05-02T18:42:26.347Z,1.67
2023-05-02T18:45:29.292Z,1.30
2023-05-02T18:48:32.329Z,1.77
2023-05-02T18:51:35.056Z,1.30
2023-05-02T18:54:37.697Z,1.40
2023-05-02T18:57:44.312Z,2.03
2023-05-02T19:00:46.943Z,1.40
2023-05-02T19:03:49.829Z,1.63
2023-05-02T19:06:52.585Z,1.80
2023-05-02T19:09:55.341Z,1.23
2023-05-02T19:12:59.302Z,1.27
2023-05-02T19:16:02.043Z,1.50
2023-05-02T19:19:04.846Z,1.20
2023-05-02T19:22:07.493Z,1.30
2023-05-02T19:25:12.784Z,1.43
2023-05-02T19:28:17.160Z,1.50
2023-05-02T19:31:21.689Z,1.30
2023-05-02T19:34:24.313Z,2.03
2023-05-02T19:37:26.867Z,1.60
2023-05-02T19:40:29.509Z,2.00
2023-05-02T19:43:34.511Z,1.50
2023-05-02T19:46:37.210Z,1.40
2023-05-02T19:49:39.892Z,1.53
2023-05-02T19:52:44.408Z,1.87
2023-05-02T19:55:47.485Z,1.40
2023-05-02T19:58:51.441Z,1.80
2023-05-02T20:01:54.036Z,1.87
2023-05-02T20:04:56.633Z,1.20
2023-05-02T20:07:59.481Z,1.60
2023-05-02T20:11:02.174Z,1.60
2023-05-02T20:14:06.130Z,1.40
2023-05-02T20:17:08.963Z,1.50
2023-05-02T20:20:12.659Z,1.20
2023-05-02T20:23:15.967Z,1.90
2023-05-02T20:26:18.659Z,1.27
2023-05-02T20:29:22.626Z,1.70
2023-05-02T20:32:25.314Z,1.40
2023-05-02T20:35:29.572Z,1.33
2023-05-02T20:38:32.171Z,1.20
2023-05-02T20:41:35.928Z,1.50
2023-05-02T20:44:39.903Z,1.40
2023-05-02T20:47:42.509Z,2.97
2023-05-02T20:50:53.146Z,1.87
2023-05-02T20:53:55.797Z,1.57
2023-05-02T20:56:58.395Z,1.37
2023-05-02T21:00:03.661Z,1.33
2023-05-02T21:03:06.516Z,1.27
2023-05-02T21:06:09.249Z,1.57
2023-05-02T21:09:11.889Z,1.37
2023-05-02T21:12:14.462Z,1.57
2023-05-02T21:15:18.491Z,1.57
2023-05-02T21:18:22.616Z,1.67
2023-05-02T21:21:25.216Z,1.60
2023-05-02T21:24:27.842Z,1.43
2023-05-02T21:27:30.583Z,1.50
2023-05-02T21:30:34.553Z,1.40
2023-05-02T21:33:37.143Z,1.80
2023-05-02T21:36:39.710Z,1.83
2023-05-02T21:39:42.282Z,1.70
2023-05-02T21:42:44.880Z,1.77
2023-05-02T21:45:50.214Z,1.60
2023-05-02T21:48:52.811Z,1.80
2023-05-02T21:51:55.382Z,1.40
2023-05-02T21:54:58.676Z,1.60
2023-05-02T21:58:01.278Z,1.90
2023-05-02T22:01:05.364Z,2.13
2023-05-02T22:04:08.010Z,1.70
2023-05-02T22:07:10.608Z,2.23
2023-05-02T22:10:13.201Z,1.63
2023-05-02T22:13:16.422Z,1.83
2023-05-02T22:16:21.386Z,1.90
2023-05-02T22:19:24.246Z,1.80
2023-05-02T22:22:27.058Z,2.10
2023-05-02T22:25:29.661Z,2.00
2023-05-02T22:28:32.250Z,1.90
2023-05-02T22:31:36.986Z,2.07
2023-05-02T22:34:39.565Z,1.70
2023-05-02T22:37:42.155Z,1.70
2023-05-02T22:40:44.707Z,1.83
2023-05-02T22:43:48.359Z,2.30
2023-05-02T22:46:52.862Z,2.00
2023-05-02T22:49:56.710Z,2.10
2023-05-02T22:52:59.677Z,1.90
2023-05-02T22:56:02.989Z,1.60
2023-05-02T22:59:05.625Z,1.93
2023-05-02T23:02:11.391Z,1.83
2023-05-02T23:05:14.178Z,1.90
2023-05-02T23:08:16.801Z,1.60
2023-05-02T23:11:19.386Z,1.80
2023-05-02T23:14:22.905Z,1.80
2023-05-02T23:17:26.885Z,2.40
2023-05-02T23:20:29.537Z,1.70
2023-05-02T23:23:32.232Z,1.90
2023-05-02T23:26:34.815Z,1.80
2023-05-02T23:29:37.481Z,1.53
2023-05-02T23:32:41.510Z,2.17
2023-05-02T23:35:44.160Z,1.73
2023-05-02T23:38:46.878Z,2.00
2023-05-02T23:41:49.542Z,1.80
2023-05-02T23:44:53.658Z,2.00
2023-05-02T23:47:57.651Z,1.93
2023-05-02T23:51:00.484Z,2.10
2023-05-02T23:54:03.060Z,1.83
2023-05-02T23:57:05.865Z,2.10
